Sunday, February 17, 2019, 9:02 PM GMT
Back to Local

CYHU, Saint Hubert Airport

Location: , , Canada Lat: 45.517
Local Time: 9:02 PM GMT (21:02 GMT) Lon: -73.417
Time Zone: GMT Elev: 88 ft

Show me the last for .
Show Coded

Time T Td Feel RH Dir Speed Gust Alt SLP Vis Weather Sky Remarks
2019-02-17 20:00 16 1 - 52 - Calm - 30.17 30.18 9 FEW180 BKN210 None
2019-02-17 19:00 14 1 6 56 30° 5 - 30.16 30.17 9 FEW190 SCT220 None
2019-02-17 18:00 16 1 7 52 90° 6 - 30.20 30.21 9 CLR Pressure falling rapidly
2019-02-17 17:00 12 0 - 56 Variable 2 - 30.23 30.24 9 CLR None
2019-02-17 16:00 12 0 - 56 80° 2 - 30.23 30.24 9 CLR None
2019-02-17 15:00 10 0 - 60 50° 2 - 30.25 30.26 9 CLR None
2019-02-17 14:00 5 -2 - 71 50° 2 - 30.25 30.26 9 CLR None
2019-02-17 13:00 1 -4 - 77 - Calm - 30.26 30.27 9 CLR None
2019-02-17 12:00 0 -6 - 77 - Calm - 30.22 30.23 9 CLR None
2019-02-17 11:00 1 -4 -6 77 60° 3 - 30.19 30.20 9 CLR None
2019-02-17 10:00 5 -2 - 71 80° 2 - 30.18 30.19 9 CLR None
2019-02-17 09:00 5 -2 -2 71 60° 3 - 30.16 30.17 9 CLR None
2019-02-17 08:00 7 -2 -5 65 330° 7 - 30.13 30.14 9 CLR None
2019-02-17 07:00 10 1 2 66 330° 5 - 30.13 30.14 9 CLR None
2019-02-17 06:00 12 3 1 66 320° 8 - 30.11 30.12 9 CLR None
2019-02-17 05:00 14 5 4 66 300° 7 - 30.09 30.10 9 SCT034 None
2019-02-17 04:00 16 5 6 61 290° 7 - 30.07 30.08 9 BKN034 None
2019-02-17 03:00 16 5 5 61 290° 8 - 30.07 30.08 9 CLR None
2019-02-17 02:00 18 7 5 61 310° 12 - 30.07 30.07 9 CLR None
2019-02-17 01:00 18 7 6 61 330° 9 - 30.04 30.04 9 CLR None
2019-02-17 00:00 21 9 10 57 320° 10 - 30.03 30.04 9 CLR None
2019-02-16 23:00 21 10 14 62 320° 6 - 30.00 30.01 9 FEW043 Pressure rising rapidly
2019-02-16 22:00 23 10 12 57 310° 10 - 29.95 29.96 9 CLR None

Support USWX by starting your Amazon purchase here.